sensor_id;sensor_type;location;lat;lon;timestamp;P1;durP1;ratioP1;P2;durP2;ratioP2
14847;SDS011;7516;43.570;1.448;2023-03-01T00:00:30;6.27;;;3.23;;
14847;SDS011;7516;43.570;1.448;2023-03-01T00:02:57;4.03;;;2.97;;
14847;SDS011;7516;43.570;1.448;2023-03-01T00:05:26;5.07;;;3.30;;
14847;SDS011;7516;43.570;1.448;2023-03-01T00:07:53;4.07;;;3.20;;
14847;SDS011;7516;43.570;1.448;2023-03-01T00:10:21;4.53;;;3.53;;
14847;SDS011;7516;43.570;1.448;2023-03-01T00:12:49;5.80;;;3.70;;
14847;SDS011;7516;43.570;1.448;2023-03-01T00:15:16;6.80;;;4.47;;
14847;SDS011;7516;43.570;1.448;2023-03-01T00:17:44;6.43;;;5.20;;
14847;SDS011;7516;43.570;1.448;2023-03-01T00:20:11;9.30;;;6.90;;
14847;SDS011;7516;43.570;1.448;2023-03-01T00:22:40;7.63;;;6.20;;
14847;SDS011;7516;43.570;1.448;2023-03-01T00:25:08;8.67;;;6.60;;
14847;SDS011;7516;43.570;1.448;2023-03-01T00:27:35;7.17;;;5.03;;
14847;SDS011;7516;43.570;1.448;2023-03-01T00:30:03;8.57;;;5.67;;
14847;SDS011;7516;43.570;1.448;2023-03-01T00:32:31;6.30;;;5.50;;
14847;SDS011;7516;43.570;1.448;2023-03-01T00:34:59;8.93;;;5.03;;
14847;SDS011;7516;43.570;1.448;2023-03-01T00:37:26;6.13;;;5.17;;
14847;SDS011;7516;43.570;1.448;2023-03-01T00:39:55;6.43;;;4.73;;
14847;SDS011;7516;43.570;1.448;2023-03-01T00:42:23;5.17;;;4.10;;
14847;SDS011;7516;43.570;1.448;2023-03-01T00:44:51;6.23;;;4.33;;
14847;SDS011;7516;43.570;1.448;2023-03-01T00:47:18;5.80;;;4.30;;
14847;SDS011;7516;43.570;1.448;2023-03-01T00:49:45;5.13;;;4.07;;
14847;SDS011;7516;43.570;1.448;2023-03-01T00:52:13;5.47;;;3.70;;
14847;SDS011;7516;43.570;1.448;2023-03-01T00:54:40;5.20;;;3.77;;
14847;SDS011;7516;43.570;1.448;2023-03-01T00:57:09;5.47;;;4.43;;
14847;SDS011;7516;43.570;1.448;2023-03-01T00:59:37;5.10;;;4.03;;
14847;SDS011;7516;43.570;1.448;2023-03-01T01:02:04;6.03;;;4.80;;
14847;SDS011;7516;43.570;1.448;2023-03-01T01:04:31;6.70;;;5.33;;
14847;SDS011;7516;43.570;1.448;2023-03-01T01:06:59;5.47;;;4.23;;
14847;SDS011;7516;43.570;1.448;2023-03-01T01:09:26;5.63;;;4.10;;
14847;SDS011;7516;43.570;1.448;2023-03-01T01:11:54;6.13;;;4.27;;
14847;SDS011;7516;43.570;1.448;2023-03-01T01:14:23;6.77;;;3.80;;
14847;SDS011;7516;43.570;1.448;2023-03-01T01:16:50;5.67;;;3.60;;
14847;SDS011;7516;43.570;1.448;2023-03-01T01:19:18;4.53;;;3.50;;
14847;SDS011;7516;43.570;1.448;2023-03-01T01:21:46;3.80;;;3.20;;
14847;SDS011;7516;43.570;1.448;2023-03-01T01:24:14;3.90;;;2.90;;
14847;SDS011;7516;43.570;1.448;2023-03-01T01:26:42;4.07;;;3.23;;
14847;SDS011;7516;43.570;1.448;2023-03-01T01:29:10;4.03;;;3.07;;
14847;SDS011;7516;43.570;1.448;2023-03-01T01:31:40;3.80;;;2.93;;
14847;SDS011;7516;43.570;1.448;2023-03-01T01:34:12;4.37;;;3.20;;
14847;SDS011;7516;43.570;1.448;2023-03-01T01:36:41;3.80;;;3.00;;
14847;SDS011;7516;43.570;1.448;2023-03-01T01:39:09;4.37;;;3.50;;
14847;SDS011;7516;43.570;1.448;2023-03-01T01:41:38;5.67;;;4.00;;
14847;SDS011;7516;43.570;1.448;2023-03-01T01:44:12;5.07;;;4.13;;
14847;SDS011;7516;43.570;1.448;2023-03-01T01:46:44;5.30;;;4.30;;
14847;SDS011;7516;43.570;1.448;2023-03-01T01:49:23;5.70;;;4.30;;
14847;SDS011;7516;43.570;1.448;2023-03-01T01:51:57;6.40;;;4.63;;
14847;SDS011;7516;43.570;1.448;2023-03-01T01:54:29;5.70;;;4.47;;
14847;SDS011;7516;43.570;1.448;2023-03-01T01:57:05;5.83;;;4.17;;
14847;SDS011;7516;43.570;1.448;2023-03-01T01:59:36;4.90;;;3.50;;
14847;SDS011;7516;43.570;1.448;2023-03-01T02:02:08;3.87;;;3.20;;
14847;SDS011;7516;43.570;1.448;2023-03-01T02:04:37;4.43;;;3.10;;
14847;SDS011;7516;43.570;1.448;2023-03-01T02:07:06;4.40;;;3.10;;
14847;SDS011;7516;43.570;1.448;2023-03-01T02:09:39;3.83;;;2.87;;
14847;SDS011;7516;43.570;1.448;2023-03-01T02:12:11;3.93;;;2.80;;
14847;SDS011;7516;43.570;1.448;2023-03-01T02:14:40;4.57;;;3.30;;
14847;SDS011;7516;43.570;1.448;2023-03-01T02:17:09;5.83;;;3.00;;
14847;SDS011;7516;43.570;1.448;2023-03-01T02:19:43;4.20;;;3.13;;
14847;SDS011;7516;43.570;1.448;2023-03-01T02:22:22;3.53;;;3.10;;
14847;SDS011;7516;43.570;1.448;2023-03-01T02:25:03;3.33;;;2.83;;
14847;SDS011;7516;43.570;1.448;2023-03-01T02:27:45;3.40;;;3.00;;
14847;SDS011;7516;43.570;1.448;2023-03-01T02:30:22;3.33;;;2.63;;
14847;SDS011;7516;43.570;1.448;2023-03-01T02:32:53;3.83;;;3.00;;
14847;SDS011;7516;43.570;1.448;2023-03-01T02:35:27;4.57;;;3.13;;
14847;SDS011;7516;43.570;1.448;2023-03-01T02:37:58;4.37;;;2.93;;
14847;SDS011;7516;43.570;1.448;2023-03-01T02:40:27;4.60;;;3.40;;
14847;SDS011;7516;43.570;1.448;2023-03-01T02:42:57;4.30;;;3.20;;
14847;SDS011;7516;43.570;1.448;2023-03-01T02:45:26;3.77;;;2.80;;
14847;SDS011;7516;43.570;1.448;2023-03-01T02:47:54;4.20;;;3.00;;
14847;SDS011;7516;43.570;1.448;2023-03-01T02:50:31;4.33;;;3.10;;
14847;SDS011;7516;43.570;1.448;2023-03-01T02:53:12;3.73;;;2.80;;
14847;SDS011;7516;43.570;1.448;2023-03-01T02:55:48;4.00;;;3.10;;
14847;SDS011;7516;43.570;1.448;2023-03-01T02:58:15;4.00;;;3.27;;
14847;SDS011;7516;43.570;1.448;2023-03-01T03:00:45;4.13;;;3.23;;
14847;SDS011;7516;43.570;1.448;2023-03-01T03:03:14;3.67;;;3.00;;
14847;SDS011;7516;43.570;1.448;2023-03-01T03:05:42;4.60;;;3.17;;
14847;SDS011;7516;43.570;1.448;2023-03-01T03:08:10;3.40;;;2.97;;
14847;SDS011;7516;43.570;1.448;2023-03-01T03:10:38;4.00;;;3.20;;
14847;SDS011;7516;43.570;1.448;2023-03-01T03:13:08;3.57;;;3.07;;
14847;SDS011;7516;43.570;1.448;2023-03-01T03:15:37;4.77;;;3.70;;
14847;SDS011;7516;43.570;1.448;2023-03-01T03:18:10;5.00;;;3.23;;
14847;SDS011;7516;43.570;1.448;2023-03-01T03:20:39;4.63;;;3.03;;
14847;SDS011;7516;43.570;1.448;2023-03-01T03:23:08;4.77;;;3.20;;
14847;SDS011;7516;43.570;1.448;2023-03-01T03:25:35;4.03;;;3.20;;
14847;SDS011;7516;43.570;1.448;2023-03-01T03:28:05;3.50;;;2.57;;
14847;SDS011;7516;43.570;1.448;2023-03-01T03:30:37;3.30;;;2.53;;
14847;SDS011;7516;43.570;1.448;2023-03-01T03:33:09;3.70;;;3.10;;
14847;SDS011;7516;43.570;1.448;2023-03-01T03:35:40;4.67;;;3.37;;
14847;SDS011;7516;43.570;1.448;2023-03-01T03:38:10;3.67;;;3.07;;
14847;SDS011;7516;43.570;1.448;2023-03-01T03:40:42;3.77;;;2.90;;
14847;SDS011;7516;43.570;1.448;2023-03-01T03:43:11;4.77;;;3.20;;
14847;SDS011;7516;43.570;1.448;2023-03-01T03:45:40;3.80;;;2.87;;
14847;SDS011;7516;43.570;1.448;2023-03-01T03:48:11;4.93;;;3.27;;
14847;SDS011;7516;43.570;1.448;2023-03-01T03:50:38;4.00;;;2.87;;
14847;SDS011;7516;43.570;1.448;2023-03-01T03:53:07;3.27;;;2.77;;
14847;SDS011;7516;43.570;1.448;2023-03-01T03:55:38;3.63;;;2.90;;
14847;SDS011;7516;43.570;1.448;2023-03-01T03:58:06;4.03;;;3.00;;
14847;SDS011;7516;43.570;1.448;2023-03-01T04:00:35;5.17;;;3.10;;
14847;SDS011;7516;43.570;1.448;2023-03-01T04:03:04;3.60;;;3.00;;
14847;SDS011;7516;43.570;1.448;2023-03-01T04:05:34;3.50;;;2.70;;
14847;SDS011;7516;43.570;1.448;2023-03-01T04:08:03;4.53;;;3.20;;
14847;SDS011;7516;43.570;1.448;2023-03-01T04:10:33;3.90;;;2.87;;
14847;SDS011;7516;43.570;1.448;2023-03-01T04:13:02;3.43;;;2.67;;
14847;SDS011;7516;43.570;1.448;2023-03-01T04:15:30;5.07;;;3.27;;
14847;SDS011;7516;43.570;1.448;2023-03-01T04:17:58;3.40;;;3.10;;
14847;SDS011;7516;43.570;1.448;2023-03-01T04:20:27;4.57;;;3.07;;
14847;SDS011;7516;43.570;1.448;2023-03-01T04:22:58;3.10;;;2.70;;
14847;SDS011;7516;43.570;1.448;2023-03-01T04:25:35;3.67;;;2.97;;
14847;SDS011;7516;43.570;1.448;2023-03-01T04:28:03;4.20;;;2.93;;
14847;SDS011;7516;43.570;1.448;2023-03-01T04:30:31;4.67;;;3.30;;
14847;SDS011;7516;43.570;1.448;2023-03-01T04:33:01;3.77;;;3.10;;
14847;SDS011;7516;43.570;1.448;2023-03-01T04:35:29;3.90;;;2.87;;
14847;SDS011;7516;43.570;1.448;2023-03-01T04:37:59;4.93;;;3.70;;
14847;SDS011;7516;43.570;1.448;2023-03-01T04:40:26;3.80;;;3.27;;
14847;SDS011;7516;43.570;1.448;2023-03-01T04:42:54;3.80;;;3.17;;
14847;SDS011;7516;43.570;1.448;2023-03-01T04:45:21;4.90;;;3.50;;
14847;SDS011;7516;43.570;1.448;2023-03-01T04:47:49;4.10;;;2.97;;
14847;SDS011;7516;43.570;1.448;2023-03-01T04:50:17;3.53;;;2.87;;
14847;SDS011;7516;43.570;1.448;2023-03-01T04:52:46;3.93;;;2.97;;
14847;SDS011;7516;43.570;1.448;2023-03-01T04:55:15;4.00;;;3.00;;
14847;SDS011;7516;43.570;1.448;2023-03-01T04:57:43;4.27;;;3.23;;
14847;SDS011;7516;43.570;1.448;2023-03-01T05:00:12;3.53;;;2.87;;
14847;SDS011;7516;43.570;1.448;2023-03-01T05:02:47;4.33;;;2.67;;
14847;SDS011;7516;43.570;1.448;2023-03-01T05:05:18;4.00;;;2.93;;
14847;SDS011;7516;43.570;1.448;2023-03-01T05:07:51;3.40;;;2.73;;
14847;SDS011;7516;43.570;1.448;2023-03-01T05:10:21;3.40;;;2.50;;
14847;SDS011;7516;43.570;1.448;2023-03-01T05:12:49;4.20;;;2.80;;
14847;SDS011;7516;43.570;1.448;2023-03-01T05:15:17;3.23;;;2.80;;
14847;SDS011;7516;43.570;1.448;2023-03-01T05:17:46;5.00;;;2.70;;
14847;SDS011;7516;43.570;1.448;2023-03-01T05:20:14;4.10;;;2.60;;
14847;SDS011;7516;43.570;1.448;2023-03-01T05:22:42;3.37;;;2.50;;
14847;SDS011;7516;43.570;1.448;2023-03-01T05:25:10;4.40;;;2.63;;
14847;SDS011;7516;43.570;1.448;2023-03-01T05:27:40;3.53;;;2.93;;
14847;SDS011;7516;43.570;1.448;2023-03-01T05:30:08;4.23;;;2.90;;
14847;SDS011;7516;43.570;1.448;2023-03-01T05:32:42;5.47;;;2.80;;
14847;SDS011;7516;43.570;1.448;2023-03-01T05:35:11;3.17;;;2.87;;
14847;SDS011;7516;43.570;1.448;2023-03-01T05:37:40;3.70;;;2.73;;
14847;SDS011;7516;43.570;1.448;2023-03-01T05:40:09;4.23;;;3.00;;
14847;SDS011;7516;43.570;1.448;2023-03-01T05:42:42;3.67;;;2.40;;
14847;SDS011;7516;43.570;1.448;2023-03-01T05:45:10;3.07;;;2.43;;
14847;SDS011;7516;43.570;1.448;2023-03-01T05:47:39;4.37;;;2.93;;
14847;SDS011;7516;43.570;1.448;2023-03-01T05:50:10;3.77;;;2.50;;
14847;SDS011;7516;43.570;1.448;2023-03-01T05:52:38;3.40;;;2.30;;
14847;SDS011;7516;43.570;1.448;2023-03-01T05:55:06;2.87;;;2.27;;
14847;SDS011;7516;43.570;1.448;2023-03-01T05:57:34;3.47;;;2.40;;
14847;SDS011;7516;43.570;1.448;2023-03-01T06:00:03;3.77;;;2.60;;
14847;SDS011;7516;43.570;1.448;2023-03-01T06:02:32;4.43;;;3.07;;
14847;SDS011;7516;43.570;1.448;2023-03-01T06:04:59;4.33;;;2.90;;
14847;SDS011;7516;43.570;1.448;2023-03-01T06:07:27;3.33;;;2.47;;
14847;SDS011;7516;43.570;1.448;2023-03-01T06:09:55;3.43;;;2.97;;
14847;SDS011;7516;43.570;1.448;2023-03-01T06:12:22;4.70;;;2.90;;
14847;SDS011;7516;43.570;1.448;2023-03-01T06:14:50;4.17;;;3.63;;
14847;SDS011;7516;43.570;1.448;2023-03-01T06:17:18;5.17;;;4.00;;
14847;SDS011;7516;43.570;1.448;2023-03-01T06:19:46;4.70;;;4.13;;
14847;SDS011;7516;43.570;1.448;2023-03-01T06:22:14;4.33;;;3.73;;
14847;SDS011;7516;43.570;1.448;2023-03-01T06:24:41;4.63;;;3.77;;
14847;SDS011;7516;43.570;1.448;2023-03-01T06:27:09;4.90;;;4.20;;
14847;SDS011;7516;43.570;1.448;2023-03-01T06:29:36;5.00;;;3.90;;
14847;SDS011;7516;43.570;1.448;2023-03-01T06:32:03;5.37;;;4.03;;
14847;SDS011;7516;43.570;1.448;2023-03-01T06:34:33;5.43;;;3.97;;
14847;SDS011;7516;43.570;1.448;2023-03-01T06:37:00;4.47;;;3.40;;
14847;SDS011;7516;43.570;1.448;2023-03-01T06:39:30;3.77;;;3.00;;
14847;SDS011;7516;43.570;1.448;2023-03-01T06:41:58;3.43;;;2.77;;
14847;SDS011;7516;43.570;1.448;2023-03-01T06:44:26;4.87;;;2.90;;
14847;SDS011;7516;43.570;1.448;2023-03-01T06:46:53;3.17;;;2.63;;
14847;SDS011;7516;43.570;1.448;2023-03-01T06:49:21;3.20;;;2.53;;
14847;SDS011;7516;43.570;1.448;2023-03-01T06:51:53;3.30;;;2.77;;
14847;SDS011;7516;43.570;1.448;2023-03-01T06:54:20;2.80;;;2.43;;
14847;SDS011;7516;43.570;1.448;2023-03-01T06:56:48;3.47;;;2.60;;
14847;SDS011;7516;43.570;1.448;2023-03-01T06:59:16;3.00;;;2.53;;
14847;SDS011;7516;43.570;1.448;2023-03-01T07:01:44;2.53;;;2.30;;
14847;SDS011;7516;43.570;1.448;2023-03-01T07:04:12;3.73;;;2.57;;
14847;SDS011;7516;43.570;1.448;2023-03-01T07:06:39;2.73;;;2.37;;
14847;SDS011;7516;43.570;1.448;2023-03-01T07:09:08;3.70;;;2.83;;
14847;SDS011;7516;43.570;1.448;2023-03-01T07:11:36;2.93;;;2.50;;
14847;SDS011;7516;43.570;1.448;2023-03-01T07:14:03;3.40;;;2.73;;
14847;SDS011;7516;43.570;1.448;2023-03-01T07:16:31;3.83;;;2.60;;
14847;SDS011;7516;43.570;1.448;2023-03-01T07:18:59;3.30;;;2.73;;
14847;SDS011;7516;43.570;1.448;2023-03-01T07:21:26;4.27;;;2.90;;
14847;SDS011;7516;43.570;1.448;2023-03-01T07:23:54;3.47;;;2.70;;
14847;SDS011;7516;43.570;1.448;2023-03-01T07:26:23;3.80;;;2.80;;
14847;SDS011;7516;43.570;1.448;2023-03-01T07:28:53;3.83;;;2.87;;
14847;SDS011;7516;43.570;1.448;2023-03-01T07:31:23;3.77;;;2.73;;
14847;SDS011;7516;43.570;1.448;2023-03-01T07:33:52;3.23;;;2.50;;
14847;SDS011;7516;43.570;1.448;2023-03-01T07:36:20;3.43;;;2.73;;
14847;SDS011;7516;43.570;1.448;2023-03-01T07:38:48;3.20;;;2.53;;
14847;SDS011;7516;43.570;1.448;2023-03-01T07:41:16;3.77;;;2.70;;
14847;SDS011;7516;43.570;1.448;2023-03-01T07:43:45;3.60;;;2.87;;
14847;SDS011;7516;43.570;1.448;2023-03-01T07:46:12;4.90;;;2.90;;
14847;SDS011;7516;43.570;1.448;2023-03-01T07:48:40;3.50;;;2.50;;
14847;SDS011;7516;43.570;1.448;2023-03-01T07:51:07;3.13;;;2.53;;
14847;SDS011;7516;43.570;1.448;2023-03-01T07:53:36;3.20;;;2.90;;
14847;SDS011;7516;43.570;1.448;2023-03-01T07:56:04;3.03;;;2.43;;
14847;SDS011;7516;43.570;1.448;2023-03-01T07:58:33;3.97;;;2.50;;
14847;SDS011;7516;43.570;1.448;2023-03-01T08:01:03;2.77;;;2.40;;
14847;SDS011;7516;43.570;1.448;2023-03-01T08:03:31;2.43;;;2.20;;
14847;SDS011;7516;43.570;1.448;2023-03-01T08:05:59;3.10;;;2.57;;
14847;SDS011;7516;43.570;1.448;2023-03-01T08:08:27;2.75;;;2.20;;
14847;SDS011;7516;43.570;1.448;2023-03-01T08:10:56;3.78;;;2.90;;
14847;SDS011;7516;43.570;1.448;2023-03-01T08:13:24;4.87;;;3.50;;
14847;SDS011;7516;43.570;1.448;2023-03-01T08:15:52;5.37;;;3.10;;
14847;SDS011;7516;43.570;1.448;2023-03-01T08:18:21;4.67;;;3.30;;
14847;SDS011;7516;43.570;1.448;2023-03-01T08:20:49;4.83;;;3.43;;
14847;SDS011;7516;43.570;1.448;2023-03-01T08:23:16;6.60;;;3.17;;
14847;SDS011;7516;43.570;1.448;2023-03-01T08:25:44;3.80;;;2.90;;
14847;SDS011;7516;43.570;1.448;2023-03-01T08:28:11;5.80;;;3.50;;
14847;SDS011;7516;43.570;1.448;2023-03-01T08:30:39;7.03;;;3.90;;
14847;SDS011;7516;43.570;1.448;2023-03-01T08:33:06;3.90;;;3.03;;
14847;SDS011;7516;43.570;1.448;2023-03-01T08:35:35;4.37;;;3.00;;
14847;SDS011;7516;43.570;1.448;2023-03-01T08:38:03;4.27;;;2.80;;
14847;SDS011;7516;43.570;1.448;2023-03-01T08:40:30;3.57;;;2.80;;
14847;SDS011;7516;43.570;1.448;2023-03-01T08:42:58;4.03;;;3.10;;
14847;SDS011;7516;43.570;1.448;2023-03-01T08:45:25;5.30;;;3.27;;
14847;SDS011;7516;43.570;1.448;2023-03-01T08:47:53;3.63;;;3.10;;
14847;SDS011;7516;43.570;1.448;2023-03-01T08:50:20;4.13;;;3.50;;
14847;SDS011;7516;43.570;1.448;2023-03-01T08:52:50;5.27;;;3.67;;
14847;SDS011;7516;43.570;1.448;2023-03-01T08:55:18;5.60;;;3.60;;
14847;SDS011;7516;43.570;1.448;2023-03-01T08:57:45;4.57;;;4.00;;
14847;SDS011;7516;43.570;1.448;2023-03-01T09:00:13;7.47;;;4.40;;
14847;SDS011;7516;43.570;1.448;2023-03-01T09:02:42;6.23;;;4.93;;
14847;SDS011;7516;43.570;1.448;2023-03-01T09:05:09;6.77;;;5.30;;
14847;SDS011;7516;43.570;1.448;2023-03-01T09:07:37;5.87;;;4.30;;
14847;SDS011;7516;43.570;1.448;2023-03-01T09:10:07;4.57;;;4.07;;
14847;SDS011;7516;43.570;1.448;2023-03-01T09:12:35;4.73;;;4.00;;
14847;SDS011;7516;43.570;1.448;2023-03-01T09:15:03;6.03;;;4.80;;
14847;SDS011;7516;43.570;1.448;2023-03-01T09:17:31;5.73;;;4.77;;
14847;SDS011;7516;43.570;1.448;2023-03-01T09:19:59;9.07;;;4.40;;
14847;SDS011;7516;43.570;1.448;2023-03-01T09:22:26;6.70;;;3.77;;
14847;SDS011;7516;43.570;1.448;2023-03-01T09:24:54;7.83;;;3.67;;
14847;SDS011;7516;43.570;1.448;2023-03-01T09:27:25;3.73;;;2.90;;
14847;SDS011;7516;43.570;1.448;2023-03-01T09:29:53;4.00;;;2.97;;
14847;SDS011;7516;43.570;1.448;2023-03-01T09:32:21;7.93;;;3.50;;
14847;SDS011;7516;43.570;1.448;2023-03-01T09:34:48;5.50;;;3.37;;
14847;SDS011;7516;43.570;1.448;2023-03-01T09:37:30;7.33;;;4.43;;
14847;SDS011;7516;43.570;1.448;2023-03-01T09:39:58;7.97;;;5.77;;
14847;SDS011;7516;43.570;1.448;2023-03-01T09:42:27;11.43;;;8.20;;
14847;SDS011;7516;43.570;1.448;2023-03-01T09:44:58;9.37;;;7.13;;
14847;SDS011;7516;43.570;1.448;2023-03-01T09:47:30;9.17;;;7.00;;
14847;SDS011;7516;43.570;1.448;2023-03-01T09:50:01;10.87;;;7.57;;
14847;SDS011;7516;43.570;1.448;2023-03-01T09:52:33;6.43;;;5.77;;
14847;SDS011;7516;43.570;1.448;2023-03-01T09:55:08;7.53;;;6.27;;
14847;SDS011;7516;43.570;1.448;2023-03-01T09:57:41;7.07;;;5.73;;
14847;SDS011;7516;43.570;1.448;2023-03-01T10:00:20;7.90;;;7.00;;
14847;SDS011;7516;43.570;1.448;2023-03-01T10:02:57;9.50;;;8.47;;
14847;SDS011;7516;43.570;1.448;2023-03-01T10:05:33;10.37;;;8.40;;
14847;SDS011;7516;43.570;1.448;2023-03-01T10:11:12;8.80;;;7.90;;
14847;SDS011;7516;43.570;1.448;2023-03-01T10:13:54;8.00;;;7.20;;
14847;SDS011;7516;43.570;1.448;2023-03-01T10:16:26;8.60;;;7.00;;
14847;SDS011;7516;43.570;1.448;2023-03-01T10:19:03;10.50;;;8.10;;
14847;SDS011;7516;43.570;1.448;2023-03-01T10:21:36;8.70;;;7.90;;
14847;SDS011;7516;43.570;1.448;2023-03-01T10:24:11;8.53;;;6.70;;
14847;SDS011;7516;43.570;1.448;2023-03-01T10:26:45;8.60;;;7.03;;
14847;SDS011;7516;43.570;1.448;2023-03-01T10:29:18;7.93;;;6.73;;
14847;SDS011;7516;43.570;1.448;2023-03-01T10:31:53;7.73;;;5.97;;
14847;SDS011;7516;43.570;1.448;2023-03-01T10:34:22;7.30;;;6.60;;
14847;SDS011;7516;43.570;1.448;2023-03-01T10:36:55;7.50;;;6.80;;
14847;SDS011;7516;43.570;1.448;2023-03-01T10:39:25;7.37;;;6.40;;
14847;SDS011;7516;43.570;1.448;2023-03-01T10:41:55;6.67;;;5.80;;
14847;SDS011;7516;43.570;1.448;2023-03-01T10:44:39;7.43;;;6.17;;
14847;SDS011;7516;43.570;1.448;2023-03-01T10:47:18;6.60;;;6.00;;
14847;SDS011;7516;43.570;1.448;2023-03-01T10:49:55;7.27;;;6.10;;
14847;SDS011;7516;43.570;1.448;2023-03-01T10:52:33;7.90;;;6.20;;
14847;SDS011;7516;43.570;1.448;2023-03-01T10:55:03;6.30;;;5.67;;
14847;SDS011;7516;43.570;1.448;2023-03-01T10:57:49;7.27;;;6.00;;
14847;SDS011;7516;43.570;1.448;2023-03-01T11:00:33;6.13;;;5.53;;
14847;SDS011;7516;43.570;1.448;2023-03-01T11:03:14;7.13;;;6.40;;
14847;SDS011;7516;43.570;1.448;2023-03-01T11:05:49;6.13;;;5.03;;
14847;SDS011;7516;43.570;1.448;2023-03-01T11:08:29;5.83;;;5.23;;
14847;SDS011;7516;43.570;1.448;2023-03-01T11:11:03;6.77;;;5.90;;
14847;SDS011;7516;43.570;1.448;2023-03-01T11:13:53;6.60;;;5.50;;
14847;SDS011;7516;43.570;1.448;2023-03-01T11:16:25;5.60;;;5.00;;
14847;SDS011;7516;43.570;1.448;2023-03-01T11:18:56;7.37;;;5.40;;
14847;SDS011;7516;43.570;1.448;2023-03-01T11:21:31;5.90;;;5.30;;
14847;SDS011;7516;43.570;1.448;2023-03-01T11:24:01;6.67;;;6.03;;
14847;SDS011;7516;43.570;1.448;2023-03-01T11:26:32;6.40;;;4.87;;
14847;SDS011;7516;43.570;1.448;2023-03-01T11:29:06;5.70;;;5.10;;
14847;SDS011;7516;43.570;1.448;2023-03-01T11:31:45;5.80;;;5.00;;
14847;SDS011;7516;43.570;1.448;2023-03-01T11:34:14;8.67;;;6.00;;
14847;SDS011;7516;43.570;1.448;2023-03-01T11:36:47;8.63;;;6.37;;
14847;SDS011;7516;43.570;1.448;2023-03-01T11:39:22;6.63;;;5.93;;
14847;SDS011;7516;43.570;1.448;2023-03-01T11:42:00;6.97;;;5.73;;
14847;SDS011;7516;43.570;1.448;2023-03-01T11:44:35;5.63;;;4.63;;
14847;SDS011;7516;43.570;1.448;2023-03-01T11:47:10;6.47;;;5.37;;
14847;SDS011;7516;43.570;1.448;2023-03-01T11:49:51;6.27;;;5.30;;
14847;SDS011;7516;43.570;1.448;2023-03-01T11:52:36;6.03;;;5.43;;
14847;SDS011;7516;43.570;1.448;2023-03-01T11:55:17;7.03;;;5.50;;
14847;SDS011;7516;43.570;1.448;2023-03-01T11:58:06;6.40;;;5.17;;
14847;SDS011;7516;43.570;1.448;2023-03-01T12:06:59;6.03;;;5.53;;
14847;SDS011;7516;43.570;1.448;2023-03-01T12:09:37;6.67;;;5.60;;
14847;SDS011;7516;43.570;1.448;2023-03-01T12:15:20;5.67;;;4.70;;
14847;SDS011;7516;43.570;1.448;2023-03-01T12:18:18;6.33;;;5.03;;
14847;SDS011;7516;43.570;1.448;2023-03-01T12:21:13;7.70;;;5.07;;
14847;SDS011;7516;43.570;1.448;2023-03-01T12:26:43;6.23;;;5.47;;
14847;SDS011;7516;43.570;1.448;2023-03-01T12:29:20;6.10;;;4.90;;
14847;SDS011;7516;43.570;1.448;2023-03-01T12:32:00;7.47;;;5.80;;
14847;SDS011;7516;43.570;1.448;2023-03-01T12:37:54;5.77;;;4.80;;
14847;SDS011;7516;43.570;1.448;2023-03-01T12:43:42;7.17;;;5.20;;
14847;SDS011;7516;43.570;1.448;2023-03-01T12:46:25;7.33;;;5.90;;
14847;SDS011;7516;43.570;1.448;2023-03-01T12:49:12;5.63;;;5.03;;
14847;SDS011;7516;43.570;1.448;2023-03-01T12:51:43;6.60;;;5.33;;
14847;SDS011;7516;43.570;1.448;2023-03-01T12:54:20;5.50;;;4.57;;
14847;SDS011;7516;43.570;1.448;2023-03-01T12:56:53;5.00;;;4.50;;
14847;SDS011;7516;43.570;1.448;2023-03-01T12:59:22;6.00;;;5.20;;
14847;SDS011;7516;43.570;1.448;2023-03-01T13:01:57;5.83;;;5.33;;
14847;SDS011;7516;43.570;1.448;2023-03-01T13:04:35;6.33;;;5.73;;
14847;SDS011;7516;43.570;1.448;2023-03-01T13:07:21;6.57;;;5.87;;
14847;SDS011;7516;43.570;1.448;2023-03-01T13:09:58;5.97;;;5.47;;
14847;SDS011;7516;43.570;1.448;2023-03-01T13:15:38;5.97;;;5.37;;
14847;SDS011;7516;43.570;1.448;2023-03-01T13:20:56;5.20;;;4.40;;
14847;SDS011;7516;43.570;1.448;2023-03-01T13:23:27;5.97;;;5.40;;
14847;SDS011;7516;43.570;1.448;2023-03-01T13:26:05;6.57;;;5.70;;
14847;SDS011;7516;43.570;1.448;2023-03-01T13:37:21;5.63;;;5.13;;
14847;SDS011;7516;43.570;1.448;2023-03-01T13:39:51;5.73;;;4.90;;
14847;SDS011;7516;43.570;1.448;2023-03-01T13:45:16;5.63;;;4.97;;
14847;SDS011;7516;43.570;1.448;2023-03-01T13:47:47;6.57;;;4.60;;
14847;SDS011;7516;43.570;1.448;2023-03-01T13:50:19;6.67;;;5.30;;
14847;SDS011;7516;43.570;1.448;2023-03-01T13:52:51;5.60;;;5.10;;
14847;SDS011;7516;43.570;1.448;2023-03-01T13:55:23;5.50;;;5.00;;
14847;SDS011;7516;43.570;1.448;2023-03-01T13:57:57;5.40;;;4.63;;
14847;SDS011;7516;43.570;1.448;2023-03-01T14:00:32;5.17;;;4.50;;
14847;SDS011;7516;43.570;1.448;2023-03-01T14:03:12;5.60;;;4.60;;
14847;SDS011;7516;43.570;1.448;2023-03-01T14:05:41;7.07;;;5.10;;
14847;SDS011;7516;43.570;1.448;2023-03-01T14:08:21;5.73;;;4.80;;
14847;SDS011;7516;43.570;1.448;2023-03-01T14:10:54;5.53;;;5.03;;
14847;SDS011;7516;43.570;1.448;2023-03-01T14:13:36;5.73;;;5.23;;
14847;SDS011;7516;43.570;1.448;2023-03-01T14:16:19;6.00;;;4.97;;
14847;SDS011;7516;43.570;1.448;2023-03-01T14:18:58;6.13;;;5.10;;
14847;SDS011;7516;43.570;1.448;2023-03-01T14:21:41;6.30;;;5.20;;
14847;SDS011;7516;43.570;1.448;2023-03-01T14:24:15;5.80;;;5.30;;
14847;SDS011;7516;43.570;1.448;2023-03-01T14:26:46;6.57;;;4.97;;
14847;SDS011;7516;43.570;1.448;2023-03-01T14:29:33;5.57;;;4.97;;
14847;SDS011;7516;43.570;1.448;2023-03-01T14:32:12;6.53;;;5.10;;
14847;SDS011;7516;43.570;1.448;2023-03-01T14:34:46;6.17;;;5.30;;
14847;SDS011;7516;43.570;1.448;2023-03-01T14:37:19;7.63;;;5.70;;
14847;SDS011;7516;43.570;1.448;2023-03-01T14:39:48;6.20;;;5.60;;
14847;SDS011;7516;43.570;1.448;2023-03-01T14:42:16;5.83;;;5.23;;
14847;SDS011;7516;43.570;1.448;2023-03-01T14:44:47;5.63;;;5.03;;
14847;SDS011;7516;43.570;1.448;2023-03-01T14:47:19;6.50;;;5.40;;
14847;SDS011;7516;43.570;1.448;2023-03-01T14:49:53;6.67;;;5.13;;
14847;SDS011;7516;43.570;1.448;2023-03-01T14:52:25;6.50;;;5.63;;
14847;SDS011;7516;43.570;1.448;2023-03-01T14:55:01;7.37;;;5.87;;
14847;SDS011;7516;43.570;1.448;2023-03-01T14:57:31;7.57;;;5.77;;
14847;SDS011;7516;43.570;1.448;2023-03-01T15:00:01;7.37;;;5.50;;
14847;SDS011;7516;43.570;1.448;2023-03-01T15:02:32;5.90;;;5.10;;
14847;SDS011;7516;43.570;1.448;2023-03-01T15:05:01;6.03;;;5.23;;
14847;SDS011;7516;43.570;1.448;2023-03-01T15:07:31;6.70;;;6.00;;
14847;SDS011;7516;43.570;1.448;2023-03-01T15:10:02;6.20;;;5.60;;
14847;SDS011;7516;43.570;1.448;2023-03-01T15:12:34;6.10;;;5.50;;
14847;SDS011;7516;43.570;1.448;2023-03-01T15:17:57;6.70;;;4.97;;
14847;SDS011;7516;43.570;1.448;2023-03-01T15:20:27;6.43;;;5.00;;
14847;SDS011;7516;43.570;1.448;2023-03-01T15:23:16;7.43;;;5.13;;
14847;SDS011;7516;43.570;1.448;2023-03-01T15:25:47;5.80;;;5.30;;
14847;SDS011;7516;43.570;1.448;2023-03-01T15:28:21;5.40;;;4.90;;
14847;SDS011;7516;43.570;1.448;2023-03-01T15:30:57;5.83;;;5.23;;
14847;SDS011;7516;43.570;1.448;2023-03-01T15:33:29;7.60;;;5.33;;
14847;SDS011;7516;43.570;1.448;2023-03-01T15:36:00;5.60;;;4.93;;
14847;SDS011;7516;43.570;1.448;2023-03-01T15:38:31;5.90;;;5.37;;
14847;SDS011;7516;43.570;1.448;2023-03-01T15:41:04;7.70;;;5.30;;
14847;SDS011;7516;43.570;1.448;2023-03-01T15:43:47;7.17;;;5.33;;
14847;SDS011;7516;43.570;1.448;2023-03-01T15:46:20;5.63;;;5.07;;
14847;SDS011;7516;43.570;1.448;2023-03-01T15:48:52;7.07;;;4.30;;
14847;SDS011;7516;43.570;1.448;2023-03-01T15:54:13;5.47;;;4.53;;
14847;SDS011;7516;43.570;1.448;2023-03-01T15:56:46;5.40;;;4.73;;
14847;SDS011;7516;43.570;1.448;2023-03-01T15:59:13;5.47;;;4.87;;
14847;SDS011;7516;43.570;1.448;2023-03-01T16:01:41;4.07;;;3.40;;
14847;SDS011;7516;43.570;1.448;2023-03-01T16:04:09;5.50;;;4.43;;
14847;SDS011;7516;43.570;1.448;2023-03-01T16:06:41;6.63;;;5.03;;
14847;SDS011;7516;43.570;1.448;2023-03-01T16:09:08;4.97;;;4.47;;